Jack Northrop Field Hawthorne Municipal Airport
KHHR : now visible

Airfield :











YOU CAN JOIN US ON...

 
LOGIN :

Register | Disclaimer

   EN    FR    IT 

 









Legend :    VFR   Marginal VFR   IFR   Intensive IFR   Very Intensive IFR
Visi :
Ceiling :
>= 8 km
>= 3000ft
5 to 8 km
1000 to 3000 ft
1500m to 5 km
500 to 1000 ft
800 to 1500m
200 to 500 ft
< 800m
< 200 ft
Symbols :   Thunderstorms  Fog  Heavy snow  Heavy precipitations  Wind > 20 kt






- Airport Elevation : 66 ft


KHHR - Jack Northrop Field Hawthorne Municipal

CURRENT METAR :
  • 282053Z 24010KT 10SM BKN025 BKN031 BKN040 18/11 A2992 RMK AO2 SLP130 T01780106 58018

EXPIRED METARs :
  • 281953Z 25006KT 10SM SCT027 SCT038 BKN048 18/11 A2994 RMK AO2 SLP138 T01780106
  • 281853Z VRB03KT 10SM FEW024 SCT043 17/10 A2996 RMK AO2 SLP147 T01670100
  • 281827Z 15004KT 10SM SCT021 SCT041 17/11 A2997 RMK AO2 T01670106
  • 281814Z 14003KT 10SM BKN022 BKN026 BKN039 17/11 A2998 RMK AO2 T01670106

TAF N/A
KZLA FIR / North America



MET'MAP, your aeronautical weather chart ! - Copyright ORBIFLY December 2007 - Disclaimer

ORBIFLY MET'MAP TEAM :

Programming & Development : Alexandra Zaïnal
Original concept : Baudouin d'Aumeries
Technical & hardware support : Manuel Goepfert
Assistance : Marc-Olivier Méhu




SOURCES & CREDITS :

   NOAA       Earth
Advisory